createdAt,value
2023-03-25T08:24:34.315Z,98124.00
2023-03-25T08:27:15.477Z,98112.00
2023-03-25T08:55:12.620Z,98131.00
2023-03-25T08:57:40.080Z,98132.00
2023-03-25T09:00:16.945Z,98131.00
2023-03-25T09:02:44.909Z,98122.00
2023-03-25T09:08:24.937Z,98122.00
2023-03-25T09:10:54.621Z,98130.00
2023-03-25T09:13:22.021Z,98128.00
2023-03-25T09:15:49.606Z,98127.00
2023-03-25T09:18:17.209Z,98125.00
2023-03-25T09:25:35.574Z,98124.00
2023-03-25T09:28:03.890Z,98137.00
2023-03-25T09:30:31.335Z,98129.00
2023-03-25T09:32:58.899Z,98155.00
2023-03-25T09:35:26.392Z,98171.00
2023-03-25T09:39:10.131Z,98165.00
2023-03-25T09:42:45.755Z,98186.00
2023-03-25T09:45:49.890Z,98191.00
2023-03-25T09:48:36.722Z,98172.00
2023-03-25T09:51:25.637Z,98201.00
2023-03-25T09:54:34.052Z,98207.00
2023-03-25T09:57:13.879Z,98196.00
2023-03-25T09:59:49.181Z,98194.00
2023-03-25T10:03:02.717Z,98187.00
2023-03-25T10:06:12.290Z,98193.00
2023-03-25T10:09:04.834Z,98200.00
2023-03-25T10:12:11.601Z,98204.00
2023-03-25T10:15:30.689Z,98204.00
2023-03-25T10:18:49.886Z,98180.00
2023-03-25T10:21:50.631Z,98177.00
2023-03-25T10:24:34.531Z,98183.00
2023-03-25T10:27:34.498Z,98191.00
2023-03-25T10:30:27.277Z,98186.00
2023-03-25T10:33:06.855Z,98175.00
2023-03-25T10:35:43.178Z,98173.00
2023-03-25T10:38:20.969Z,98175.00
2023-03-25T10:41:37.423Z,98179.00
2023-03-25T10:44:12.854Z,98184.00
2023-03-25T10:46:52.262Z,98170.00
2023-03-25T10:49:27.421Z,98195.00
2023-03-25T10:51:57.655Z,98169.00
2023-03-25T10:54:33.521Z,98185.00
2023-03-25T10:57:08.122Z,98187.00
2023-03-25T10:59:52.643Z,98188.00
2023-03-25T11:02:26.087Z,98190.00
2023-03-25T11:05:05.160Z,98185.00
2023-03-25T11:07:50.773Z,98173.00
2023-03-25T11:10:23.980Z,98177.00
2023-03-25T11:12:54.695Z,98173.00
2023-03-25T11:15:30.733Z,98162.00
2023-03-25T11:18:24.855Z,98166.00
2023-03-25T11:21:15.603Z,98170.00
2023-03-25T11:23:52.447Z,98164.00
2023-03-25T11:26:36.432Z,98160.00
2023-03-25T11:29:19.650Z,98174.00
2023-03-25T11:32:13.079Z,98175.00
2023-03-25T11:34:43.740Z,98158.00
2023-03-25T11:37:22.639Z,98140.00
2023-03-25T11:39:56.048Z,98135.00
2023-03-25T11:42:42.829Z,98170.00
2023-03-25T11:45:39.243Z,98154.00
2023-03-25T11:48:29.838Z,98154.00
2023-03-25T11:51:03.074Z,98146.00
2023-03-25T11:53:33.630Z,98144.00
2023-03-25T11:56:11.850Z,98152.00
2023-03-25T11:58:40.800Z,98154.00
2023-03-25T12:01:46.124Z,98159.00
2023-03-25T12:04:32.531Z,98107.00
2023-03-25T12:07:15.400Z,98131.00
2023-03-25T12:10:04.769Z,98119.00
2023-03-25T12:14:06.652Z,98121.00
2023-03-25T12:17:28.730Z,98121.00
2023-03-25T12:20:39.776Z,98127.00
2023-03-25T12:23:56.956Z,98145.00
2023-03-25T12:27:16.590Z,98117.00
2023-03-25T12:30:38.461Z,98113.00
2023-03-25T12:33:48.685Z,98102.00
2023-03-25T12:36:42.881Z,98114.00
2023-03-25T12:40:11.385Z,98102.00
2023-03-25T12:43:10.952Z,98120.00
2023-03-25T12:46:15.792Z,98116.00
2023-03-25T12:49:44.537Z,98097.00
2023-03-25T12:52:33.657Z,98097.00
2023-03-25T12:55:36.940Z,98101.00
2023-03-25T12:58:56.330Z,98130.00
2023-03-25T13:02:15.776Z,98144.00
2023-03-25T13:06:02.223Z,98105.00
2023-03-25T13:09:05.308Z,98149.00
2023-03-25T13:11:59.655Z,98136.00
2023-03-25T13:14:44.883Z,98147.00
2023-03-25T13:17:32.047Z,98147.00
2023-03-25T13:20:06.524Z,98161.00
2023-03-25T13:22:44.990Z,98135.00
2023-03-25T13:25:33.685Z,98126.00
2023-03-25T13:28:10.334Z,98137.00
2023-03-25T13:30:46.891Z,98118.00
2023-03-25T13:33:25.620Z,98150.00
2023-03-25T13:36:34.396Z,98144.00
2023-03-25T13:39:24.748Z,98133.00
2023-03-25T13:42:13.521Z,98143.00
2023-03-25T13:44:47.086Z,98129.00
2023-03-25T13:47:40.140Z,98095.00
2023-03-25T13:50:32.084Z,98129.00
2023-03-25T13:53:51.926Z,98135.00
2023-03-25T13:57:25.976Z,98127.00
2023-03-25T14:00:34.592Z,98124.00
2023-03-25T14:04:13.374Z,98108.00
2023-03-25T14:07:46.473Z,98114.00
2023-03-25T14:11:18.415Z,98133.00
2023-03-25T14:14:01.765Z,98122.00
2023-03-25T14:16:43.150Z,98128.00
2023-03-25T14:19:32.527Z,98143.00
2023-03-25T14:22:06.561Z,98150.00
2023-03-25T14:24:41.629Z,98153.00
2023-03-25T14:27:34.903Z,98168.00
2023-03-25T14:30:28.724Z,98175.00
2023-03-25T14:32:56.995Z,98152.00
2023-03-25T14:35:33.802Z,98132.00
2023-03-25T14:38:09.908Z,98153.00
2023-03-25T14:40:50.726Z,98156.00
2023-03-25T14:43:47.744Z,98163.00
2023-03-25T14:46:24.363Z,98136.00
2023-03-25T14:49:23.026Z,98151.00
2023-03-25T14:51:56.936Z,98156.00
2023-03-25T14:54:34.753Z,98143.00
2023-03-25T14:57:33.068Z,98155.00
2023-03-25T15:00:13.893Z,98153.00
2023-03-25T15:02:44.238Z,98163.00
2023-03-25T15:05:24.694Z,98128.00
2023-03-25T15:08:00.216Z,98133.00
2023-03-25T15:10:38.219Z,98126.00
2023-03-25T15:13:33.317Z,98131.00
2023-03-25T15:16:38.323Z,98136.00
2023-03-25T15:19:14.559Z,98136.00
2023-03-25T15:22:01.168Z,98124.00
2023-03-25T15:24:43.748Z,98138.00
2023-03-25T15:28:05.095Z,98125.00
2023-03-25T15:31:32.043Z,98140.00
2023-03-25T15:35:00.298Z,98156.00
2023-03-25T15:38:17.742Z,98138.00
2023-03-25T15:42:04.210Z,98136.00
2023-03-25T15:45:08.100Z,98147.00
2023-03-25T15:48:27.494Z,98149.00
2023-03-25T15:51:38.617Z,98150.00
2023-03-25T15:54:44.251Z,98119.00
2023-03-25T15:58:03.564Z,98125.00
2023-03-25T16:00:44.960Z,98134.00
2023-03-25T16:03:29.243Z,98128.00
2023-03-25T16:06:05.843Z,98124.00
2023-03-25T16:08:40.784Z,98130.00
2023-03-25T16:11:35.626Z,98134.00
2023-03-25T16:14:17.459Z,98139.00
2023-03-25T16:17:00.095Z,98122.00
2023-03-25T16:19:49.603Z,98126.00
2023-03-25T16:22:28.935Z,98129.00
2023-03-25T16:25:27.134Z,98121.00
2023-03-25T16:28:01.565Z,98126.00
2023-03-25T16:30:43.127Z,98124.00
2023-03-25T16:33:10.686Z,98130.00
2023-03-25T16:35:59.060Z,98127.00
2023-03-25T16:38:27.697Z,98118.00
2023-03-25T16:41:14.885Z,98128.00
2023-03-25T16:43:43.471Z,98121.00
2023-03-25T16:46:15.195Z,98116.00
2023-03-25T16:48:53.563Z,98131.00
2023-03-25T16:51:36.091Z,98120.00
2023-03-25T16:54:22.198Z,98108.00
2023-03-25T16:56:50.208Z,98110.00
2023-03-25T16:59:36.799Z,98102.00
2023-03-25T17:02:28.355Z,98104.00
2023-03-25T17:05:19.026Z,98106.00
2023-03-25T17:08:08.662Z,98091.00
2023-03-25T17:10:55.278Z,98102.00
2023-03-25T17:13:44.695Z,98097.00
2023-03-25T17:16:13.198Z,98087.00
2023-03-25T17:18:40.821Z,98097.00
2023-03-25T17:21:20.020Z,98094.00
2023-03-25T17:23:47.854Z,98088.00
2023-03-25T17:26:21.165Z,98096.00
2023-03-25T17:28:51.529Z,98101.00
2023-03-25T17:31:34.701Z,98107.00
2023-03-25T17:34:12.856Z,98107.00
2023-03-25T17:36:47.138Z,98109.00
2023-03-25T17:39:27.957Z,98098.00
2023-03-25T17:42:06.777Z,98110.00
2023-03-25T17:44:43.523Z,98112.00
2023-03-25T17:47:19.127Z,98117.00
2023-03-25T17:49:46.768Z,98131.00
2023-03-25T17:52:14.149Z,98142.00
2023-03-25T17:54:41.585Z,98145.00
2023-03-25T17:57:19.765Z,98141.00
2023-03-25T17:59:47.824Z,98145.00
2023-03-25T18:02:17.425Z,98142.00
2023-03-25T18:04:44.866Z,98144.00
2023-03-25T18:07:12.467Z,98141.00
2023-03-25T18:09:41.323Z,98141.00
2023-03-25T18:12:10.383Z,98141.00
2023-03-25T18:14:37.803Z,98156.00
2023-03-25T18:17:05.303Z,98142.00
2023-03-25T18:19:34.099Z,98156.00
2023-03-25T18:22:10.005Z,98160.00
2023-03-25T18:24:46.570Z,98154.00
2023-03-25T18:27:14.696Z,98149.00
2023-03-25T18:29:42.206Z,98151.00
2023-03-25T18:32:09.808Z,98163.00
2023-03-25T18:34:37.255Z,98159.00
2023-03-25T18:37:04.730Z,98158.00
2023-03-25T18:39:32.786Z,98157.00
2023-03-25T18:42:00.310Z,98170.00
2023-03-25T18:44:28.632Z,98164.00
2023-03-25T18:46:56.405Z,98175.00
2023-03-25T18:49:23.858Z,98169.00
2023-03-25T18:51:51.469Z,98179.00
2023-03-25T18:54:19.547Z,98172.00
2023-03-25T18:56:47.441Z,98174.00
2023-03-25T18:59:21.979Z,98181.00
2023-03-25T19:01:49.827Z,98178.00
2023-03-25T19:04:18.301Z,98190.00
2023-03-25T19:06:45.732Z,98184.00
2023-03-25T19:09:22.868Z,98194.00
2023-03-25T19:11:51.296Z,98203.00
2023-03-25T19:14:18.913Z,98208.00
2023-03-25T19:16:57.252Z,98205.00
2023-03-25T19:19:28.960Z,98213.00
2023-03-25T19:21:56.414Z,98207.00
2023-03-25T19:24:49.503Z,98194.00
2023-03-25T19:27:28.633Z,98203.00
2023-03-25T19:29:56.237Z,98209.00
2023-03-25T19:32:23.838Z,98204.00
2023-03-25T19:35:03.051Z,98188.00
2023-03-25T19:37:35.376Z,98206.00
2023-03-25T19:40:09.386Z,98206.00
2023-03-25T19:42:38.677Z,98203.00
2023-03-25T19:45:10.740Z,98207.00
2023-03-25T19:47:42.219Z,98203.00
2023-03-25T19:50:19.104Z,98186.00
2023-03-25T19:52:49.944Z,98199.00
2023-03-25T19:55:18.421Z,98207.00
2023-03-25T19:57:47.528Z,98193.00
2023-03-25T20:00:26.192Z,98192.00
2023-03-25T20:03:02.226Z,98193.00
2023-03-25T20:05:33.839Z,98192.00
2023-03-25T20:08:01.781Z,98198.00
2023-03-25T20:10:30.541Z,98193.00
2023-03-25T20:13:00.268Z,98191.00
2023-03-25T20:15:27.777Z,98183.00
2023-03-25T20:17:56.213Z,98194.00
2023-03-25T20:20:25.036Z,98189.00
2023-03-25T20:22:53.261Z,98196.00
2023-03-25T20:25:21.405Z,98190.00
2023-03-25T20:27:48.999Z,98193.00
2023-03-25T20:30:19.949Z,98189.00
2023-03-25T20:32:48.793Z,98189.00
2023-03-25T20:35:19.066Z,98180.00
2023-03-25T20:37:49.149Z,98185.00
2023-03-25T20:40:19.784Z,98180.00
2023-03-25T20:42:49.660Z,98170.00
2023-03-25T20:45:18.752Z,98173.00
2023-03-25T20:47:46.510Z,98170.00
2023-03-25T20:50:16.590Z,98164.00
2023-03-25T20:52:44.982Z,98156.00
2023-03-25T20:55:13.025Z,98171.00
2023-03-25T20:57:41.493Z,98160.00
2023-03-25T21:00:18.174Z,98146.00
2023-03-25T21:02:46.310Z,98155.00
2023-03-25T21:05:13.860Z,98152.00
2023-03-25T21:07:41.773Z,98150.00
2023-03-25T21:10:10.444Z,98153.00
2023-03-25T21:12:44.006Z,98147.00
2023-03-25T21:15:17.073Z,98147.00
2023-03-25T21:17:44.573Z,98143.00
2023-03-25T21:20:12.919Z,98137.00
2023-03-25T21:22:43.879Z,98140.00
2023-03-25T21:25:14.763Z,98145.00
2023-03-25T21:27:45.452Z,98143.00
2023-03-25T21:30:14.089Z,98143.00
2023-03-25T21:32:41.919Z,98139.00
2023-03-25T21:35:10.462Z,98146.00
2023-03-25T21:37:39.272Z,98143.00
2023-03-25T21:40:11.738Z,98149.00
2023-03-25T21:42:41.725Z,98151.00
2023-03-25T21:45:13.980Z,98136.00
2023-03-25T21:47:43.347Z,98137.00
2023-03-25T21:50:14.692Z,98137.00
2023-03-25T21:52:47.085Z,98133.00
2023-03-25T21:55:19.650Z,98120.00
2023-03-25T21:57:51.932Z,98126.00
2023-03-25T22:00:20.310Z,98108.00
2023-03-25T22:02:48.439Z,98113.00
2023-03-25T22:05:17.146Z,98115.00
2023-03-25T22:07:45.129Z,98116.00
2023-03-25T22:10:12.781Z,98113.00
2023-03-25T22:12:40.506Z,98107.00
2023-03-25T22:15:10.126Z,98111.00
2023-03-25T22:17:37.672Z,98113.00
2023-03-25T22:20:06.168Z,98104.00
2023-03-25T22:22:33.633Z,98106.00
2023-03-25T22:25:01.250Z,98100.00
2023-03-25T22:27:28.730Z,98098.00
2023-03-25T22:29:56.297Z,98091.00
2023-03-25T22:32:27.282Z,98101.00
2023-03-25T22:34:55.187Z,98100.00
2023-03-25T22:37:22.566Z,98095.00
2023-03-25T22:39:50.548Z,98097.00
2023-03-25T22:42:18.062Z,98103.00
2023-03-25T22:44:46.499Z,98093.00
2023-03-25T22:47:13.951Z,98100.00
2023-03-25T22:49:41.383Z,98095.00
2023-03-25T22:52:08.869Z,98089.00
2023-03-25T22:54:36.408Z,98089.00
2023-03-25T22:57:04.231Z,98089.00
2023-03-25T22:59:31.969Z,98087.00
2023-03-25T23:01:59.466Z,98083.00
2023-03-25T23:04:27.012Z,98080.00
2023-03-25T23:07:06.849Z,98071.00
2023-03-25T23:09:42.112Z,98065.00
2023-03-25T23:12:20.776Z,98060.00
2023-03-25T23:14:56.915Z,98061.00
2023-03-25T23:17:26.658Z,98056.00
2023-03-25T23:19:54.326Z,98051.00
2023-03-25T23:22:22.367Z,98046.00
2023-03-25T23:24:49.883Z,98048.00
2023-03-25T23:27:17.708Z,98039.00
2023-03-25T23:29:45.211Z,98039.00
2023-03-25T23:32:12.691Z,98033.00
2023-03-25T23:34:40.432Z,98033.00
2023-03-25T23:37:09.340Z,98043.00
2023-03-25T23:39:40.590Z,98036.00
2023-03-25T23:42:09.053Z,98040.00
2023-03-25T23:44:36.453Z,98046.00
2023-03-25T23:47:04.893Z,98042.00
2023-03-25T23:49:34.031Z,98046.00
2023-03-25T23:52:01.547Z,98046.00
2023-03-25T23:54:29.119Z,98050.00
2023-03-25T23:56:56.623Z,98052.00
2023-03-25T23:59:24.094Z,98044.00
